• Join FlightAware (Why Join?)
  • Login
  • US Flag 
08:01AM EDT


 

Airport Tracker/Info


-or-


 

Live Flight TrackerFlight Track Log ✈ FIN666 ✈ 15-Feb-2014 ✈ EKCH / CPH - EFHK / HEL

Flight Track Log - Related Links

Times and Time Zones

All times are in EST time to prevent confusion due to time zone crossing. See the FIN666 flight status page for this flight to view local times or setup timezone preferences in your user account.

Time Position Orientation Groundspeed Altitude Reporting Facility
EST Latitude Longitude Course Direction KTS MPH feet Rate Location/Type
07:33AM 55.8486 13.1329 49° Northeast  Level Estimated
07:34AM 55.9251 13.2931 50° Northeast  Level Estimated
07:35AM 56.0014 13.4539 50° Northeast  Level Estimated
07:36AM 56.0774 13.6154 50° Northeast  Level Estimated
07:37AM 56.1533 13.7775 50° Northeast  Level Estimated
07:38AM 56.2301 13.9427 50° Northeast  Level Estimated
07:39AM 56.3066 14.1086 50° Northeast  Level Estimated
07:40AM 56.3829 14.2751 50° Northeast  Level Estimated
07:41AM 56.4590 14.4423 50° Northeast  Level Estimated
07:42AM 56.5349 14.6102 51° Northeast  Level Estimated
07:43AM 56.6105 14.7788 51° Northeast  Level Estimated
07:44AM 56.6860 14.9480 51° Northeast  Level Estimated
07:45AM 56.7612 15.1179 51° Northeast  Level Estimated
07:46AM 56.8361 15.2884 51° Northeast  Level Estimated
07:47AM 56.9108 15.4597 51° Northeast  Level Estimated
07:48AM 56.9853 15.6316 51° Northeast  Level Estimated
07:49AM 57.0596 15.8043 52° Northeast  Level Estimated
07:50AM 57.1347 15.9802 52° Northeast  Level Estimated
07:51AM 57.2096 16.1569 52° Northeast  Level Estimated
07:52AM 57.2842 16.3343 52° Northeast  Level Estimated
07:53AM 57.3586 16.5124 52° Northeast  Level Estimated
07:54AM 57.4328 16.6912 52° Northeast  Level Estimated
07:55AM 57.5066 16.8708 53° Northeast  Level Estimated
07:56AM 57.5803 17.0510 53° Northeast  Level Estimated
07:57AM 57.6536 17.2320 53° Northeast  Level Estimated
07:58AM 57.7267 17.4138 53° Northeast  Level Estimated
07:59AM 57.7996 17.5963 53° Northeast  Level Estimated
08:00AM 57.8722 17.7795 53° Northeast  Level Estimated
08:01AM 57.9445 17.9634 53° Northeast  Level Estimated
08:02AM 58.0165 18.1481 54° Northeast  Level Estimated
08:03AM 58.0883 18.3336 54° Northeast  Level Estimated
08:04AM 58.1598 18.5197 54° Northeast  Level Estimated
08:05AM 58.2311 18.7067 54° Northeast  Level Estimated
08:06AM 58.3020 18.8944 54° Northeast  Level Estimated
08:07AM 58.3727 19.0828 54° Northeast  Level Estimated
08:08AM 58.4431 19.2720 55° Northeast  Level Estimated
08:09AM 58.5132 19.4619 55° Northeast  Level Estimated
08:10AM 58.5831 19.6526 55° Northeast  Level Estimated
08:11AM 58.6527 19.8441 55° Northeast  Level Estimated
08:12AM 58.7220 20.0363 55° Northeast  Level Estimated
08:13AM 58.7909 20.2293 55° Northeast  Level Estimated
08:14AM 58.8596 20.4231 56° Northeast  Level Estimated
08:15AM 58.9281 20.6176 56° Northeast  Level Estimated
08:16AM 58.9962 20.8129 56° Northeast  Level Estimated
08:17AM 59.0640 21.0090 56° Northeast  Level Estimated
08:18AM 59.1315 21.2059 56° Northeast  Level Estimated
08:19AM 59.1978 21.4005 56° Northeast  Level Estimated
08:20AM 59.2637 21.5960 57° Northeast  Level Estimated
08:21AM 59.3293 21.7922 57° Northeast  Level Estimated
08:22AM 59.3947 21.9891 57° Northeast  Level Estimated
08:23AM 59.4597 22.1868 57° Northeast  Level Estimated
08:24AM 59.5245 22.3853 57° Northeast  Level Estimated
08:25AM 59.5889 22.5845 57° Northeast  Level Estimated
08:26AM 59.6531 22.7845 58° Northeast  Level Estimated
08:27AM 59.7169 22.9852 58° Northeast  Level Estimated
08:28AM 59.7804 23.1867 58° Northeast  Level Estimated
08:29AM 59.8437 23.3890 58° Northeast  Level Estimated
08:30AM 59.9066 23.5921 58° Northeast  Level Estimated
08:31AM 59.9692 23.7959 58° Northeast  Level Estimated
08:32AM 60.0314 24.0005 59° Northeast  Level Estimated
08:33AM 60.0934 24.2058 59° Northeast  Level Estimated
08:34AM 60.1550 24.4120 59° Northeast  Level Estimated
08:35AM 60.2164 24.6189 59° Northeast  Level Estimated
08:36AM 60.2774 24.8265 59° Northeast  Level Estimated
08:37AM 60.3172 24.9633 59° Northeast  Level Estimated
08:38AM 60.3172 24.9633 37° Northeast  Level Estimated
08:39AM 60.3172 24.9633 37° Northeast  Level Estimated
08:40AM 60.3172 24.9633 37° Northeast  Level Estimated
08:41AM 60.3172 24.9633 37° Northeast  Level Estimated
08:42AM 60.3172 24.9633 37° Northeast  Level Estimated
08:43AM 60.3172 24.9633 37° Northeast  Level Estimated
08:44AM 60.3172 24.9633 37° Northeast  Level Estimated
08:45AM 60.3172 24.9633 37° Northeast  Level Estimated
08:46AM 60.3172 24.9633 37° Northeast  Level Estimated
08:47AM 60.3172 24.9633 37° Northeast  Level Estimated
08:48AM 60.3172 24.9633 37° Northeast  Level Estimated